createdAt,value
2018-12-29T00:00:27.088Z,51.47
2018-12-29T00:02:57.833Z,86.70
2018-12-29T00:05:30.255Z,41.97
2018-12-29T00:08:03.257Z,37.03
2018-12-29T00:10:40.988Z,48.10
2018-12-29T00:13:12.448Z,47.13
2018-12-29T00:15:44.184Z,46.30
2018-12-29T00:18:17.572Z,49.77
2018-12-29T00:20:48.670Z,55.27
2018-12-29T00:23:19.614Z,47.27
2018-12-29T00:25:50.430Z,52.00
2018-12-29T00:28:21.491Z,40.27
2018-12-29T00:30:58.043Z,51.50
2018-12-29T00:33:31.974Z,49.13
2018-12-29T00:36:02.739Z,49.03
2018-12-29T00:38:35.648Z,46.17
2018-12-29T00:41:06.402Z,30.30
2018-12-29T00:43:38.300Z,46.33
2018-12-29T00:46:09.527Z,40.73
2018-12-29T00:48:40.682Z,47.60
2018-12-29T00:51:12.294Z,47.80
2018-12-29T00:53:47.144Z,45.90
2018-12-29T00:56:17.791Z,43.13
2018-12-29T00:59:14.041Z,44.17
2018-12-29T01:01:44.673Z,26.80
2018-12-29T01:04:15.335Z,40.70
2018-12-29T01:06:48.268Z,39.93
2018-12-29T01:09:18.973Z,44.37
2018-12-29T01:11:50.044Z,36.97
2018-12-29T01:14:20.730Z,33.87
2018-12-29T01:16:51.939Z,40.60
2018-12-29T01:19:22.458Z,33.43
2018-12-29T01:21:52.733Z,39.10
2018-12-29T01:24:23.387Z,37.13
2018-12-29T01:26:53.678Z,40.90
2018-12-29T01:29:23.814Z,28.20
2018-12-29T01:31:54.042Z,29.23
2018-12-29T01:34:24.343Z,32.90
2018-12-29T01:36:54.620Z,32.17
2018-12-29T01:39:25.123Z,36.00
2018-12-29T01:41:55.437Z,34.83
2018-12-29T01:44:25.672Z,36.07
2018-12-29T01:46:56.329Z,35.37
2018-12-29T01:49:26.595Z,31.50
2018-12-29T01:51:56.945Z,30.53
2018-12-29T01:54:27.396Z,33.13
2018-12-29T01:56:57.701Z,30.27
2018-12-29T01:59:28.774Z,28.93
2018-12-29T02:01:59.117Z,29.37
2018-12-29T02:04:29.988Z,33.10
2018-12-29T02:07:00.272Z,30.87
2018-12-29T02:09:30.557Z,30.43
2018-12-29T02:12:01.055Z,33.20
2018-12-29T02:14:31.389Z,31.33
2018-12-29T02:17:01.946Z,28.30
2018-12-29T02:19:32.235Z,18.17
2018-12-29T02:22:02.502Z,31.00
2018-12-29T02:24:32.853Z,28.67
2018-12-29T02:27:03.108Z,25.70
2018-12-29T02:29:33.489Z,30.43
2018-12-29T02:32:03.758Z,32.23
2018-12-29T02:34:33.990Z,31.83
2018-12-29T02:37:04.304Z,30.00
2018-12-29T02:39:34.633Z,30.63
2018-12-29T02:42:05.030Z,31.43
2018-12-29T02:44:35.245Z,30.60
2018-12-29T02:47:05.942Z,29.20
2018-12-29T02:49:36.176Z,34.87
2018-12-29T02:52:06.778Z,32.27
2018-12-29T02:54:37.588Z,31.40
2018-12-29T02:57:07.924Z,32.63
2018-12-29T02:59:38.477Z,21.60
2018-12-29T03:02:11.789Z,31.70
2018-12-29T03:04:42.071Z,33.77
2018-12-29T03:07:12.514Z,33.80
2018-12-29T03:09:42.804Z,32.77
2018-12-29T03:12:13.374Z,30.93
2018-12-29T03:14:43.819Z,32.30
2018-12-29T03:17:17.144Z,33.53
2018-12-29T03:19:47.485Z,32.93
2018-12-29T03:22:17.785Z,28.27
2018-12-29T03:24:48.115Z,28.17
2018-12-29T03:27:18.469Z,32.27
2018-12-29T03:29:48.724Z,35.10
2018-12-29T03:32:53.479Z,34.83
2018-12-29T03:35:23.719Z,33.07
2018-12-29T03:37:54.097Z,36.27
2018-12-29T03:40:24.476Z,28.10
2018-12-29T03:42:55.178Z,36.43
2018-12-29T03:45:25.448Z,34.30
2018-12-29T03:47:55.858Z,27.13
2018-12-29T03:50:26.221Z,23.60
2018-12-29T03:52:56.615Z,35.20
2018-12-29T03:55:26.956Z,37.03
2018-12-29T03:57:57.280Z,35.93
2018-12-29T04:00:28.304Z,30.70
2018-12-29T04:02:58.615Z,38.17
2018-12-29T04:05:28.955Z,34.27
2018-12-29T04:07:59.204Z,30.70
2018-12-29T04:10:29.548Z,36.77
2018-12-29T04:13:01.553Z,32.57
2018-12-29T04:15:31.844Z,31.30
2018-12-29T04:18:02.242Z,33.80
2018-12-29T04:20:32.515Z,33.03
2018-12-29T04:23:03.088Z,33.90
2018-12-29T04:25:33.939Z,33.67
2018-12-29T04:28:04.673Z,35.07
2018-12-29T04:30:35.414Z,30.03
2018-12-29T04:33:05.727Z,36.13
2018-12-29T04:35:36.642Z,29.93
2018-12-29T04:38:07.611Z,34.33
2018-12-29T04:40:38.146Z,24.77
2018-12-29T04:43:08.565Z,36.07
2018-12-29T04:45:39.669Z,33.80
2018-12-29T04:48:10.109Z,33.93
2018-12-29T04:50:40.832Z,29.30
2018-12-29T04:53:11.116Z,27.77
2018-12-29T04:55:41.970Z,32.97
2018-12-29T04:58:12.335Z,32.73
2018-12-29T05:00:42.790Z,31.83
2018-12-29T05:03:13.061Z,32.53
2018-12-29T05:05:43.506Z,32.20
2018-12-29T05:08:15.051Z,30.33
2018-12-29T05:10:45.301Z,31.50
2018-12-29T05:13:15.562Z,32.10
2018-12-29T05:15:45.957Z,30.43
2018-12-29T05:18:16.267Z,29.73
2018-12-29T05:20:46.582Z,31.63
2018-12-29T05:23:17.022Z,28.47
2018-12-29T05:25:47.313Z,30.83
2018-12-29T05:28:17.537Z,29.63
2018-12-29T05:30:48.038Z,30.37
2018-12-29T05:33:18.348Z,28.23
2018-12-29T05:35:51.365Z,27.93
2018-12-29T05:38:21.688Z,30.33
2018-12-29T05:40:53.241Z,30.10
2018-12-29T05:43:23.579Z,32.13
2018-12-29T05:45:53.984Z,29.80
2018-12-29T05:48:24.618Z,30.40
2018-12-29T05:50:59.659Z,29.97
2018-12-29T05:53:29.908Z,30.47
2018-12-29T05:56:00.598Z,27.67
2018-12-29T05:58:30.996Z,30.53
2018-12-29T06:01:01.386Z,17.50
2018-12-29T06:03:31.843Z,29.07
2018-12-29T06:06:49.253Z,28.07
2018-12-29T06:09:20.950Z,14.80
2018-12-29T06:11:52.326Z,29.03
2018-12-29T06:14:22.551Z,28.47
2018-12-29T06:16:54.420Z,32.80
2018-12-29T06:19:24.802Z,29.20
2018-12-29T06:21:55.119Z,34.07
2018-12-29T06:24:25.790Z,27.07
2018-12-29T06:26:56.144Z,28.97
2018-12-29T06:29:26.343Z,32.60
2018-12-29T06:31:57.342Z,32.43
2018-12-29T06:34:27.817Z,35.30
2018-12-29T06:36:58.548Z,30.97
2018-12-29T06:39:29.009Z,26.73
2018-12-29T06:41:59.518Z,30.63
2018-12-29T06:44:30.066Z,34.80
2018-12-29T06:47:00.459Z,28.47
2018-12-29T06:49:30.593Z,35.23
2018-12-29T06:52:00.991Z,31.87
2018-12-29T06:54:31.662Z,35.40
2018-12-29T06:57:02.036Z,33.67
2018-12-29T06:59:32.463Z,24.13
2018-12-29T07:02:02.879Z,34.00
2018-12-29T07:04:33.275Z,34.03
2018-12-29T07:07:03.602Z,36.70
2018-12-29T07:09:34.072Z,38.57
2018-12-29T07:12:04.926Z,25.77
2018-12-29T07:14:35.170Z,33.10
2018-12-29T07:17:06.140Z,36.50
2018-12-29T07:19:36.428Z,32.13
2018-12-29T07:22:06.757Z,30.53
2018-12-29T07:24:37.443Z,35.13
2018-12-29T07:27:07.717Z,30.23
2018-12-29T07:29:38.604Z,32.13
2018-12-29T07:32:08.916Z,31.03
2018-12-29T07:34:39.442Z,28.63
2018-12-29T07:37:10.006Z,68.93
2018-12-29T07:39:40.311Z,36.77
2018-12-29T07:42:10.987Z,36.17
2018-12-29T07:44:41.195Z,25.60
2018-12-29T07:47:12.892Z,22.07
2018-12-29T07:49:43.392Z,29.63
2018-12-29T07:52:13.734Z,27.50
2018-12-29T07:54:44.317Z,24.40
2018-12-29T07:57:14.741Z,30.97
2018-12-29T07:59:44.986Z,25.93
2018-12-29T08:02:15.240Z,18.03
2018-12-29T08:04:46.080Z,18.73
2018-12-29T08:07:16.591Z,26.80
2018-12-29T08:09:47.564Z,23.50
2018-12-29T08:12:18.165Z,29.37
2018-12-29T08:14:49.879Z,17.50
2018-12-29T08:17:20.271Z,30.63
2018-12-29T08:19:50.562Z,23.77
2018-12-29T08:22:20.878Z,27.93
2018-12-29T08:24:51.409Z,39.40
2018-12-29T08:27:21.866Z,27.87
2018-12-29T08:29:52.235Z,28.80
2018-12-29T08:32:22.535Z,32.60
2018-12-29T08:34:53.455Z,40.00
2018-12-29T08:37:24.734Z,25.30
2018-12-29T08:40:18.306Z,79.77
2018-12-29T08:42:48.621Z,37.37
2018-12-29T08:45:18.957Z,42.50
2018-12-29T08:47:49.267Z,29.73
2018-12-29T08:50:19.870Z,37.43
2018-12-29T08:52:50.296Z,34.47
2018-12-29T08:55:20.516Z,30.53
2018-12-29T08:57:50.823Z,56.70
2018-12-29T09:00:21.281Z,125.50
2018-12-29T09:02:51.698Z,37.40
2018-12-29T09:05:21.941Z,77.77
2018-12-29T09:07:52.621Z,47.47
2018-12-29T09:10:22.929Z,78.20
2018-12-29T09:12:53.270Z,32.23
2018-12-29T09:15:23.757Z,34.67
2018-12-29T09:17:54.069Z,40.30
2018-12-29T09:20:24.654Z,28.73
2018-12-29T09:22:55.497Z,32.17
2018-12-29T09:25:26.733Z,32.77
2018-12-29T09:27:57.119Z,16.20
2018-12-29T09:30:27.420Z,15.73
2018-12-29T09:32:57.742Z,25.63
2018-12-29T09:35:28.514Z,23.40
2018-12-29T09:37:58.947Z,22.33
2018-12-29T09:40:29.236Z,19.47
2018-12-29T09:42:59.659Z,20.07
2018-12-29T09:45:30.429Z,20.13
2018-12-29T09:48:01.209Z,19.73
2018-12-29T09:50:31.910Z,20.43
2018-12-29T09:53:02.297Z,17.93
2018-12-29T09:55:32.577Z,17.70
2018-12-29T09:58:02.900Z,20.27
2018-12-29T10:00:33.724Z,16.47
2018-12-29T10:03:04.107Z,17.83
2018-12-29T10:05:34.528Z,12.97
2018-12-29T10:08:04.853Z,41.70
2018-12-29T10:10:36.582Z,15.57
2018-12-29T10:13:07.345Z,28.50
2018-12-29T10:15:38.064Z,28.20
2018-12-29T10:18:09.549Z,14.77
2018-12-29T10:20:39.941Z,14.40
2018-12-29T10:23:10.273Z,17.07
2018-12-29T10:25:40.763Z,17.67
2018-12-29T10:28:14.518Z,13.60
2018-12-29T10:30:46.811Z,15.83
2018-12-29T10:33:18.141Z,13.93
2018-12-29T10:35:49.270Z,16.37
2018-12-29T10:38:19.668Z,16.03
2018-12-29T10:40:50.285Z,14.67
2018-12-29T10:43:20.543Z,16.17
2018-12-29T10:45:50.920Z,13.50
2018-12-29T10:48:21.184Z,14.77
2018-12-29T10:50:51.718Z,16.63
2018-12-29T10:53:21.874Z,16.17
2018-12-29T10:55:52.403Z,14.57
2018-12-29T10:58:22.696Z,14.40
2018-12-29T11:00:53.966Z,12.07
2018-12-29T11:03:24.226Z,15.13
2018-12-29T11:05:54.552Z,11.67
2018-12-29T11:08:26.789Z,17.90
2018-12-29T11:10:57.077Z,12.57
2018-12-29T11:17:09.719Z,17.30
2018-12-29T11:19:40.014Z,9.23
2018-12-29T11:22:10.326Z,11.07
2018-12-29T11:24:40.727Z,14.90
2018-12-29T11:27:11.265Z,17.17
2018-12-29T11:29:42.305Z,16.97
2018-12-29T11:32:12.551Z,17.20
2018-12-29T11:34:43.353Z,15.67
2018-12-29T11:37:13.726Z,17.43
2018-12-29T11:39:44.065Z,15.53
2018-12-29T11:42:14.349Z,16.37
2018-12-29T11:44:44.723Z,15.33
2018-12-29T11:47:15.139Z,16.73
2018-12-29T11:49:45.799Z,16.17
2018-12-29T11:52:16.131Z,13.57
2018-12-29T11:54:46.471Z,14.03
2018-12-29T11:57:16.682Z,15.03
2018-12-29T11:59:47.057Z,15.43
2018-12-29T12:02:24.317Z,14.97
2018-12-29T12:04:49.409Z,14.60
2018-12-29T12:07:19.734Z,13.70
2018-12-29T12:09:50.184Z,13.20
2018-12-29T12:12:20.634Z,11.60
2018-12-29T12:14:51.295Z,13.00
2018-12-29T12:17:22.750Z,14.97
2018-12-29T12:19:53.117Z,15.33
2018-12-29T12:22:23.515Z,14.33
2018-12-29T12:24:55.084Z,9.80
2018-12-29T12:27:25.425Z,12.43
2018-12-29T12:29:55.931Z,15.17
2018-12-29T12:32:26.559Z,14.37
2018-12-29T12:34:58.056Z,14.77
2018-12-29T12:37:28.308Z,12.20
2018-12-29T12:39:58.963Z,14.63
2018-12-29T12:42:29.675Z,11.37
2018-12-29T12:45:00.686Z,14.10
2018-12-29T12:47:31.131Z,29.33
2018-12-29T12:50:01.505Z,13.53
2018-12-29T12:52:32.164Z,13.43
2018-12-29T12:55:02.845Z,19.80
2018-12-29T12:57:33.335Z,24.50
2018-12-29T13:00:03.860Z,13.80
2018-12-29T13:02:34.531Z,17.90
2018-12-29T13:05:04.891Z,19.43
2018-12-29T13:07:36.191Z,121.27
2018-12-29T13:10:10.069Z,53.43
2018-12-29T13:12:40.505Z,20.37
2018-12-29T13:15:11.204Z,17.83
2018-12-29T13:17:43.795Z,11.93
2018-12-29T13:20:14.442Z,17.97
2018-12-29T13:22:49.156Z,24.17
2018-12-29T13:25:23.013Z,15.57
2018-12-29T13:27:54.923Z,40.70
2018-12-29T13:30:25.604Z,13.27
2018-12-29T13:32:56.104Z,11.83
2018-12-29T13:35:27.079Z,14.33
2018-12-29T13:37:59.284Z,11.43
2018-12-29T13:40:29.522Z,12.90
2018-12-29T13:43:00.386Z,17.00
2018-12-29T13:45:30.584Z,11.03
2018-12-29T13:48:00.657Z,9.33
2018-12-29T13:50:31.057Z,7.37
2018-12-29T13:53:01.717Z,12.80
2018-12-29T13:55:32.558Z,13.33
2018-12-29T13:58:02.930Z,14.13
2018-12-29T14:00:33.423Z,7.97
2018-12-29T14:03:03.727Z,9.63
2018-12-29T14:05:34.484Z,5.93
2018-12-29T14:08:05.160Z,12.57
2018-12-29T14:10:35.947Z,8.57
2018-12-29T14:13:06.350Z,9.60
2018-12-29T14:15:37.863Z,11.93
2018-12-29T14:18:08.444Z,7.80
2018-12-29T14:20:38.924Z,6.53
2018-12-29T14:23:09.961Z,43.67
2018-12-29T14:25:40.768Z,26.63
2018-12-29T14:28:11.131Z,9.97
2018-12-29T14:30:41.331Z,31.00
2018-12-29T14:33:15.234Z,23.93
2018-12-29T14:35:45.563Z,43.27
2018-12-29T14:38:16.000Z,16.70
2018-12-29T14:40:46.416Z,36.57
2018-12-29T14:43:16.590Z,37.23
2018-12-29T14:45:46.951Z,17.20
2018-12-29T14:48:17.243Z,17.70
2018-12-29T14:50:47.821Z,34.10
2018-12-29T14:53:18.314Z,57.27
2018-12-29T14:55:48.702Z,25.13
2018-12-29T14:58:20.742Z,21.50
2018-12-29T15:00:55.282Z,19.37
2018-12-29T15:03:26.319Z,24.03
2018-12-29T15:05:59.153Z,62.50
2018-12-29T15:08:29.825Z,29.27
2018-12-29T15:11:01.525Z,30.00
2018-12-29T15:13:32.691Z,16.77
2018-12-29T15:16:07.108Z,47.17
2018-12-29T15:18:43.527Z,21.13
2018-12-29T15:21:14.622Z,23.87
2018-12-29T15:23:48.063Z,38.30
2018-12-29T15:26:20.312Z,27.77
2018-12-29T15:28:50.882Z,56.27
2018-12-29T15:31:22.170Z,39.20
2018-12-29T15:33:57.883Z,15.97
2018-12-29T15:36:29.121Z,36.70
2018-12-29T15:38:59.586Z,60.77
2018-12-29T15:41:30.626Z,49.10
2018-12-29T15:44:01.930Z,29.87
2018-12-29T15:46:32.628Z,13.33
2018-12-29T15:49:03.323Z,19.90
2018-12-29T15:51:33.909Z,14.53
2018-12-29T15:54:04.400Z,18.20
2018-12-29T15:56:35.639Z,44.53
2018-12-29T15:59:06.194Z,44.63
2018-12-29T16:01:36.637Z,38.70
2018-12-29T16:04:07.076Z,37.57
2018-12-29T16:06:37.667Z,40.50
2018-12-29T16:09:09.127Z,18.73
2018-12-29T16:11:39.962Z,22.30
2018-12-29T16:14:10.420Z,21.47
2018-12-29T16:16:40.871Z,28.00
2018-12-29T16:19:11.529Z,13.13
2018-12-29T16:21:51.061Z,19.60
2018-12-29T16:24:22.102Z,17.93
2018-12-29T16:26:52.715Z,17.23
2018-12-29T16:29:23.207Z,20.93
2018-12-29T16:31:53.880Z,13.63
2018-12-29T16:34:24.303Z,14.73
2018-12-29T16:36:54.727Z,16.70
2018-12-29T16:39:25.415Z,15.60
2018-12-29T16:41:56.463Z,15.13
2018-12-29T16:44:26.935Z,21.77
2018-12-29T16:46:57.397Z,11.33
2018-12-29T16:49:28.162Z,10.13
2018-12-29T16:51:59.198Z,8.70
2018-12-29T16:54:30.282Z,10.33
2018-12-29T16:57:03.336Z,14.27
2018-12-29T16:59:34.842Z,10.30
2018-12-29T17:02:05.939Z,12.70
2018-12-29T17:04:36.595Z,12.23
2018-12-29T17:07:06.882Z,9.63
2018-12-29T17:09:37.741Z,9.17
2018-12-29T17:12:08.885Z,12.63
2018-12-29T17:14:39.447Z,18.17
2018-12-29T17:17:09.846Z,9.43
2018-12-29T17:19:40.618Z,8.50
2018-12-29T17:22:11.400Z,9.17
2018-12-29T17:24:41.896Z,7.43
2018-12-29T17:27:12.721Z,7.33
2018-12-29T17:29:43.386Z,7.90
2018-12-29T17:32:13.991Z,8.83
2018-12-29T17:34:44.538Z,8.20
2018-12-29T17:37:15.126Z,8.70
2018-12-29T17:39:46.323Z,8.90
2018-12-29T17:42:17.052Z,5.93
2018-12-29T17:44:47.932Z,8.53
2018-12-29T17:47:18.528Z,7.97
2018-12-29T17:49:49.174Z,8.23
2018-12-29T17:52:19.737Z,5.60
2018-12-29T17:54:50.111Z,9.13
2018-12-29T17:57:20.690Z,8.17
2018-12-29T17:59:51.056Z,8.27
2018-12-29T18:02:21.462Z,8.50
2018-12-29T18:04:51.863Z,7.37
2018-12-29T18:07:22.476Z,7.10
2018-12-29T18:09:57.126Z,7.93
2018-12-29T18:12:25.575Z,7.67
2018-12-29T18:14:56.350Z,7.83
2018-12-29T18:17:30.088Z,8.50
2018-12-29T18:20:00.580Z,7.73
2018-12-29T18:22:31.034Z,8.50
2018-12-29T18:25:01.787Z,6.60
2018-12-29T18:27:32.234Z,6.90
2018-12-29T18:30:02.703Z,8.80
2018-12-29T18:32:33.218Z,7.57
2018-12-29T18:35:04.636Z,6.73
2018-12-29T18:37:35.039Z,6.03
2018-12-29T18:40:07.433Z,8.30
2018-12-29T18:42:37.721Z,6.93
2018-12-29T18:45:08.201Z,9.07
2018-12-29T18:47:39.259Z,8.63
2018-12-29T18:50:09.788Z,7.57
2018-12-29T18:52:40.305Z,10.03
2018-12-29T18:55:13.984Z,6.23
2018-12-29T18:57:46.375Z,11.80
2018-12-29T19:00:17.130Z,8.90
2018-12-29T19:02:47.959Z,13.23
2018-12-29T19:05:18.604Z,12.63
2018-12-29T19:07:49.978Z,9.53
2018-12-29T19:10:21.704Z,12.53
2018-12-29T19:12:52.243Z,8.90
2018-12-29T19:15:23.390Z,13.53
2018-12-29T19:17:54.490Z,9.60
2018-12-29T19:20:27.470Z,12.20
2018-12-29T19:23:01.694Z,15.17
2018-12-29T19:25:34.022Z,9.57
2018-12-29T19:28:05.038Z,13.50
2018-12-29T19:30:37.581Z,11.47
2018-12-29T19:33:08.710Z,13.27
2018-12-29T19:35:40.662Z,8.23
2018-12-29T19:38:11.381Z,9.40
2018-12-29T19:40:42.792Z,9.87
2018-12-29T19:43:14.813Z,5.87
2018-12-29T19:45:45.253Z,7.97
2018-12-29T19:48:15.637Z,11.10
2018-12-29T19:50:46.693Z,8.43
2018-12-29T19:53:18.051Z,10.77
2018-12-29T19:55:49.135Z,10.60
2018-12-29T19:58:20.612Z,10.70
2018-12-29T20:00:52.094Z,9.67
2018-12-29T20:03:23.067Z,9.90
2018-12-29T20:05:53.970Z,7.13
2018-12-29T20:08:25.629Z,9.23
2018-12-29T20:10:58.761Z,5.93
2018-12-29T20:13:29.327Z,8.17
2018-12-29T20:15:59.788Z,10.57
2018-12-29T20:18:31.168Z,8.20
2018-12-29T20:21:02.731Z,9.40
2018-12-29T20:23:33.312Z,11.10
2018-12-29T20:26:03.933Z,12.33
2018-12-29T20:28:35.041Z,20.93
2018-12-29T20:31:06.432Z,18.20
2018-12-29T20:33:37.498Z,14.93
2018-12-29T20:36:08.092Z,8.40
2018-12-29T20:38:38.726Z,11.23
2018-12-29T20:41:09.191Z,10.00
2018-12-29T20:43:39.738Z,14.10
2018-12-29T20:46:10.471Z,8.70
2018-12-29T20:48:40.967Z,9.70
2018-12-29T20:51:11.458Z,5.57
2018-12-29T20:53:42.085Z,7.90
2018-12-29T20:56:18.243Z,6.57
2018-12-29T20:58:53.186Z,5.77
2018-12-29T21:01:23.891Z,6.27
2018-12-29T21:03:56.175Z,8.27
2018-12-29T21:06:27.109Z,6.37
2018-12-29T21:08:57.620Z,8.10
2018-12-29T21:11:28.545Z,4.00
2018-12-29T21:13:58.966Z,8.57
2018-12-29T21:16:29.355Z,6.90
2018-12-29T21:18:59.887Z,7.27
2018-12-29T21:21:30.444Z,7.80
2018-12-29T21:24:01.579Z,9.90
2018-12-29T21:26:32.213Z,10.10
2018-12-29T21:31:52.791Z,7.53
2018-12-29T21:34:23.281Z,4.87
2018-12-29T21:36:53.845Z,6.40
2018-12-29T21:39:24.260Z,6.43
2018-12-29T21:41:55.868Z,5.37
2018-12-29T21:44:26.302Z,4.10
2018-12-29T21:46:56.817Z,3.50
2018-12-29T21:49:27.269Z,4.67
2018-12-29T21:51:57.857Z,5.73
2018-12-29T21:54:28.289Z,4.80
2018-12-29T21:56:58.621Z,5.47
2018-12-29T21:59:29.572Z,4.37
2018-12-29T22:02:01.234Z,5.03
2018-12-29T22:04:32.065Z,4.00
2018-12-29T22:07:02.555Z,3.93
2018-12-29T22:09:33.654Z,4.03
2018-12-29T22:12:04.218Z,2.87
2018-12-29T22:14:35.578Z,3.40
2018-12-29T22:17:06.107Z,4.20
2018-12-29T22:19:36.617Z,4.23
2018-12-29T22:22:06.969Z,3.70
2018-12-29T22:24:37.454Z,4.90
2018-12-29T22:27:07.993Z,4.10
2018-12-29T22:29:38.527Z,3.73
2018-12-29T22:32:09.196Z,5.10
2018-12-29T22:34:39.865Z,5.90
2018-12-29T22:37:15.279Z,4.70
2018-12-29T22:39:46.263Z,4.70
2018-12-29T22:42:19.909Z,4.20
2018-12-29T22:45:31.507Z,4.87
2018-12-29T22:48:06.195Z,5.17
2018-12-29T22:50:41.095Z,6.07
2018-12-29T22:53:12.427Z,4.43
2018-12-29T22:55:42.832Z,5.07
2018-12-29T22:58:14.438Z,5.03
2018-12-29T23:00:46.093Z,4.53
2018-12-29T23:03:16.862Z,5.57
2018-12-29T23:05:47.554Z,4.67
2018-12-29T23:08:18.043Z,5.03
2018-12-29T23:10:49.601Z,5.57
2018-12-29T23:13:20.104Z,4.07
2018-12-29T23:15:50.916Z,4.80
2018-12-29T23:18:21.529Z,4.23
2018-12-29T23:20:52.179Z,5.03
2018-12-29T23:23:23.065Z,5.70
2018-12-29T23:25:53.758Z,4.57
2018-12-29T23:28:26.072Z,5.03
2018-12-29T23:30:57.140Z,5.33
2018-12-29T23:33:27.705Z,4.50
2018-12-29T23:36:01.064Z,5.80
2018-12-29T23:38:31.600Z,5.33
2018-12-29T23:41:02.297Z,5.70
2018-12-29T23:43:33.035Z,5.90
2018-12-29T23:46:04.851Z,5.13
2018-12-29T23:48:35.249Z,6.10
2018-12-29T23:51:06.024Z,4.83
2018-12-29T23:53:37.303Z,6.20
2018-12-29T23:56:08.545Z,6.73
2018-12-29T23:58:39.288Z,8.43
